sensor_id;sensor_type;location;lat;lon;timestamp;pressure;altitude;pressure_sealevel;temperature;humidity
73566;BME280;61846;52.970;-3.168;2023-03-23T00:01:35;98147.90;;;7.89;45.67
73566;BME280;61846;52.970;-3.168;2023-03-23T00:04:01;98151.17;;;7.60;46.82
73566;BME280;61846;52.970;-3.168;2023-03-23T00:06:28;98157.72;;;7.63;47.16
73566;BME280;61846;52.970;-3.168;2023-03-23T00:08:54;98151.82;;;8.03;46.15
73566;BME280;61846;52.970;-3.168;2023-03-23T00:11:20;98165.17;;;7.42;46.65
73566;BME280;61846;52.970;-3.168;2023-03-23T00:13:45;98162.74;;;7.69;46.26
73566;BME280;61846;52.970;-3.168;2023-03-23T00:16:10;98172.87;;;7.47;47.33
73566;BME280;61846;52.970;-3.168;2023-03-23T00:18:35;98167.53;;;7.82;46.51
73566;BME280;61846;52.970;-3.168;2023-03-23T00:21:00;98164.53;;;7.61;46.57
73566;BME280;61846;52.970;-3.168;2023-03-23T00:23:26;98163.64;;;7.25;46.91
73566;BME280;61846;52.970;-3.168;2023-03-23T00:25:54;98153.05;;;7.95;45.98
73566;BME280;61846;52.970;-3.168;2023-03-23T00:28:18;98150.35;;;7.93;45.58
73566;BME280;61846;52.970;-3.168;2023-03-23T00:30:43;98152.64;;;8.09;45.11
73566;BME280;61846;52.970;-3.168;2023-03-23T00:33:09;98149.42;;;7.80;45.79
73566;BME280;61846;52.970;-3.168;2023-03-23T00:35:34;98165.07;;;9.02;44.09
73566;BME280;61846;52.970;-3.168;2023-03-23T00:38:00;98166.53;;;8.32;44.80
73566;BME280;61846;52.970;-3.168;2023-03-23T00:40:25;98167.37;;;8.59;44.50
73566;BME280;61846;52.970;-3.168;2023-03-23T00:42:51;98181.62;;;8.26;45.21
73566;BME280;61846;52.970;-3.168;2023-03-23T00:45:17;98180.78;;;8.94;43.63
73566;BME280;61846;52.970;-3.168;2023-03-23T00:47:42;98176.03;;;8.28;44.24
73566;BME280;61846;52.970;-3.168;2023-03-23T00:50:08;98186.92;;;8.28;44.76
73566;BME280;61846;52.970;-3.168;2023-03-23T00:52:33;98185.77;;;8.54;44.27
73566;BME280;61846;52.970;-3.168;2023-03-23T00:54:59;98192.39;;;8.74;44.11
73566;BME280;61846;52.970;-3.168;2023-03-23T00:57:25;98198.80;;;8.53;44.50
73566;BME280;61846;52.970;-3.168;2023-03-23T00:59:51;98207.54;;;7.61;44.93
73566;BME280;61846;52.970;-3.168;2023-03-23T01:02:16;98210.74;;;7.29;46.08
73566;BME280;61846;52.970;-3.168;2023-03-23T01:04:42;98223.76;;;7.76;44.90
73566;BME280;61846;52.970;-3.168;2023-03-23T01:07:07;98227.30;;;8.33;43.30
73566;BME280;61846;52.970;-3.168;2023-03-23T01:09:33;98235.67;;;7.97;44.19
73566;BME280;61846;52.970;-3.168;2023-03-23T01:11:58;98229.99;;;7.98;44.43
73566;BME280;61846;52.970;-3.168;2023-03-23T01:14:24;98228.92;;;8.13;43.99
73566;BME280;61846;52.970;-3.168;2023-03-23T01:16:50;98234.60;;;7.49;45.60
73566;BME280;61846;52.970;-3.168;2023-03-23T01:19:15;98237.65;;;7.75;44.79
73566;BME280;61846;52.970;-3.168;2023-03-23T01:21:41;98246.78;;;7.51;45.23
73566;BME280;61846;52.970;-3.168;2023-03-23T01:24:07;98247.45;;;7.87;44.39
73566;BME280;61846;52.970;-3.168;2023-03-23T01:26:32;98251.99;;;8.64;43.21
73566;BME280;61846;52.970;-3.168;2023-03-23T01:28:57;98258.03;;;8.31;43.84
73566;BME280;61846;52.970;-3.168;2023-03-23T01:31:24;98263.34;;;8.00;43.49
73566;BME280;61846;52.970;-3.168;2023-03-23T01:33:50;98268.23;;;7.81;44.23
73566;BME280;61846;52.970;-3.168;2023-03-23T01:36:15;98259.79;;;7.88;44.39
73566;BME280;61846;52.970;-3.168;2023-03-23T01:38:39;98264.74;;;8.13;44.26
73566;BME280;61846;52.970;-3.168;2023-03-23T01:41:05;98270.91;;;6.91;45.57
73566;BME280;61846;52.970;-3.168;2023-03-23T01:43:30;98275.00;;;7.38;46.11
73566;BME280;61846;52.970;-3.168;2023-03-23T01:45:56;98281.35;;;6.98;45.80
73566;BME280;61846;52.970;-3.168;2023-03-23T01:48:24;98272.41;;;7.65;45.92
73566;BME280;61846;52.970;-3.168;2023-03-23T01:50:51;98260.16;;;8.04;45.49
73566;BME280;61846;52.970;-3.168;2023-03-23T01:53:12;98250.28;;;8.24;44.76
73566;BME280;61846;52.970;-3.168;2023-03-23T01:55:40;98250.63;;;8.18;43.94
73566;BME280;61846;52.970;-3.168;2023-03-23T01:58:04;98247.04;;;8.45;44.48
73566;BME280;61846;52.970;-3.168;2023-03-23T02:00:29;98257.98;;;8.58;43.60
73566;BME280;61846;52.970;-3.168;2023-03-23T02:02:55;98264.19;;;9.12;43.41
73566;BME280;61846;52.970;-3.168;2023-03-23T02:05:26;98257.20;;;8.78;43.73
73566;BME280;61846;52.970;-3.168;2023-03-23T02:07:48;98258.23;;;9.62;42.21
73566;BME280;61846;52.970;-3.168;2023-03-23T02:10:11;98258.72;;;9.56;42.50
73566;BME280;61846;52.970;-3.168;2023-03-23T02:12:37;98264.58;;;9.08;42.53
73566;BME280;61846;52.970;-3.168;2023-03-23T02:15:03;98261.44;;;10.01;41.24
73566;BME280;61846;52.970;-3.168;2023-03-23T02:17:32;98259.85;;;9.17;42.50
73566;BME280;61846;52.970;-3.168;2023-03-23T02:20:06;98254.76;;;9.91;40.93
73566;BME280;61846;52.970;-3.168;2023-03-23T02:22:33;98252.43;;;10.11;40.54
73566;BME280;61846;52.970;-3.168;2023-03-23T02:24:57;98246.88;;;10.06;41.25
73566;BME280;61846;52.970;-3.168;2023-03-23T02:27:14;98249.50;;;9.79;41.54
73566;BME280;61846;52.970;-3.168;2023-03-23T02:29:47;98243.31;;;10.52;40.19
73566;BME280;61846;52.970;-3.168;2023-03-23T02:32:12;98256.89;;;9.39;42.79
73566;BME280;61846;52.970;-3.168;2023-03-23T02:34:29;98253.91;;;10.01;41.55
73566;BME280;61846;52.970;-3.168;2023-03-23T02:36:56;98251.78;;;9.46;41.62
73566;BME280;61846;52.970;-3.168;2023-03-23T02:39:22;98242.56;;;11.23;39.83
73566;BME280;61846;52.970;-3.168;2023-03-23T02:41:49;98256.52;;;10.29;40.04
73566;BME280;61846;52.970;-3.168;2023-03-23T02:44:10;98249.42;;;10.41;40.21
73566;BME280;61846;52.970;-3.168;2023-03-23T02:46:36;98249.03;;;10.28;41.04
73566;BME280;61846;52.970;-3.168;2023-03-23T02:49:02;98248.96;;;9.18;42.81
73566;BME280;61846;52.970;-3.168;2023-03-23T02:51:27;98252.91;;;11.09;40.39
73566;BME280;61846;52.970;-3.168;2023-03-23T02:53:54;98255.24;;;10.48;41.36
73566;BME280;61846;52.970;-3.168;2023-03-23T02:56:19;98261.18;;;6.32;50.09
73566;BME280;61846;52.970;-3.168;2023-03-23T02:58:43;98259.24;;;8.20;47.65
73566;BME280;61846;52.970;-3.168;2023-03-23T03:03:33;98255.75;;;8.84;45.67
73566;BME280;61846;52.970;-3.168;2023-03-23T03:06:06;98249.09;;;7.83;47.84
73566;BME280;61846;52.970;-3.168;2023-03-23T03:08:30;98258.85;;;7.92;47.81
73566;BME280;61846;52.970;-3.168;2023-03-23T03:10:54;98257.09;;;9.85;44.16
73566;BME280;61846;52.970;-3.168;2023-03-23T03:13:23;98245.80;;;9.73;43.65
73566;BME280;61846;52.970;-3.168;2023-03-23T03:15:45;98254.33;;;8.85;46.09
73566;BME280;61846;52.970;-3.168;2023-03-23T03:18:11;98251.82;;;8.84;45.06
73566;BME280;61846;52.970;-3.168;2023-03-23T03:20:33;98256.14;;;9.57;43.68
73566;BME280;61846;52.970;-3.168;2023-03-23T03:22:59;98250.49;;;7.13;47.84
73566;BME280;61846;52.970;-3.168;2023-03-23T03:25:23;98265.53;;;7.79;48.17
73566;BME280;61846;52.970;-3.168;2023-03-23T03:27:49;98272.54;;;8.15;47.09
73566;BME280;61846;52.970;-3.168;2023-03-23T03:30:17;98260.35;;;9.19;45.44
73566;BME280;61846;52.970;-3.168;2023-03-23T03:32:44;98259.04;;;6.82;51.02
73566;BME280;61846;52.970;-3.168;2023-03-23T03:35:06;98243.66;;;7.58;49.65
73566;BME280;61846;52.970;-3.168;2023-03-23T03:37:34;98246.01;;;9.51;45.55
73566;BME280;61846;52.970;-3.168;2023-03-23T03:39:56;98245.10;;;9.31;44.40
73566;BME280;61846;52.970;-3.168;2023-03-23T03:42:22;98245.51;;;7.80;49.33
73566;BME280;61846;52.970;-3.168;2023-03-23T03:44:47;98249.22;;;8.20;47.72
73566;BME280;61846;52.970;-3.168;2023-03-23T03:47:13;98246.04;;;8.83;47.22
73566;BME280;61846;52.970;-3.168;2023-03-23T03:49:38;98238.72;;;9.78;45.30
73566;BME280;61846;52.970;-3.168;2023-03-23T03:52:04;98239.59;;;9.12;46.30
73566;BME280;61846;52.970;-3.168;2023-03-23T03:54:29;98234.83;;;10.25;44.87
73566;BME280;61846;52.970;-3.168;2023-03-23T03:56:54;98239.69;;;10.58;43.75
73566;BME280;61846;52.970;-3.168;2023-03-23T03:59:20;98242.94;;;10.48;43.76
73566;BME280;61846;52.970;-3.168;2023-03-23T04:01:45;98243.73;;;7.90;47.61
73566;BME280;61846;52.970;-3.168;2023-03-23T04:04:11;98245.27;;;8.60;47.55
73566;BME280;61846;52.970;-3.168;2023-03-23T04:06:36;98242.65;;;8.48;48.19
73566;BME280;61846;52.970;-3.168;2023-03-23T04:09:03;98251.44;;;7.12;51.85
73566;BME280;61846;52.970;-3.168;2023-03-23T04:11:27;98235.76;;;7.17;51.52
73566;BME280;61846;52.970;-3.168;2023-03-23T04:13:52;98240.64;;;7.94;50.08
73566;BME280;61846;52.970;-3.168;2023-03-23T04:16:18;98235.58;;;8.46;48.92
73566;BME280;61846;52.970;-3.168;2023-03-23T04:18:43;98238.09;;;9.28;46.64
73566;BME280;61846;52.970;-3.168;2023-03-23T04:21:09;98230.79;;;8.60;48.02
73566;BME280;61846;52.970;-3.168;2023-03-23T04:23:34;98225.07;;;7.82;49.08
73566;BME280;61846;52.970;-3.168;2023-03-23T04:26:00;98242.47;;;6.86;51.73
73566;BME280;61846;52.970;-3.168;2023-03-23T04:28:25;98248.40;;;6.56;53.12
73566;BME280;61846;52.970;-3.168;2023-03-23T04:30:51;98240.19;;;5.60;56.55
73566;BME280;61846;52.970;-3.168;2023-03-23T04:33:16;98241.80;;;7.26;51.93
73566;BME280;61846;52.970;-3.168;2023-03-23T04:35:41;98235.92;;;7.63;50.35
73566;BME280;61846;52.970;-3.168;2023-03-23T04:38:06;98238.00;;;7.00;52.16
73566;BME280;61846;52.970;-3.168;2023-03-23T04:40:31;98232.23;;;7.44;50.96
73566;BME280;61846;52.970;-3.168;2023-03-23T04:42:56;98232.09;;;6.62;53.87
73566;BME280;61846;52.970;-3.168;2023-03-23T04:45:22;98221.90;;;7.77;50.69
73566;BME280;61846;52.970;-3.168;2023-03-23T04:50:12;98221.51;;;9.18;46.54
73566;BME280;61846;52.970;-3.168;2023-03-23T04:52:38;98227.07;;;7.89;49.67
73566;BME280;61846;52.970;-3.168;2023-03-23T04:55:04;98223.30;;;6.00;52.86
73566;BME280;61846;52.970;-3.168;2023-03-23T04:57:28;98236.36;;;6.85;52.74
73566;BME280;61846;52.970;-3.168;2023-03-23T04:59:54;98223.03;;;6.67;53.28
73566;BME280;61846;52.970;-3.168;2023-03-23T05:02:19;98221.49;;;7.05;51.86
73566;BME280;61846;52.970;-3.168;2023-03-23T05:04:44;98199.88;;;8.56;48.63
73566;BME280;61846;52.970;-3.168;2023-03-23T05:07:11;98211.98;;;9.22;45.91
73566;BME280;61846;52.970;-3.168;2023-03-23T05:09:35;98220.51;;;6.42;51.59
73566;BME280;61846;52.970;-3.168;2023-03-23T05:12:04;98212.45;;;7.55;49.87
73566;BME280;61846;52.970;-3.168;2023-03-23T05:14:26;98209.22;;;7.51;50.19
73566;BME280;61846;52.970;-3.168;2023-03-23T05:16:51;98205.40;;;8.52;48.37
73566;BME280;61846;52.970;-3.168;2023-03-23T05:19:17;98204.99;;;9.65;45.60
73566;BME280;61846;52.970;-3.168;2023-03-23T05:21:42;98194.04;;;8.61;46.94
73566;BME280;61846;52.970;-3.168;2023-03-23T05:24:08;98202.64;;;6.70;52.39
73566;BME280;61846;52.970;-3.168;2023-03-23T05:26:33;98185.52;;;8.35;49.09
73566;BME280;61846;52.970;-3.168;2023-03-23T05:28:58;98188.42;;;10.05;45.42
73566;BME280;61846;52.970;-3.168;2023-03-23T05:31:24;98200.27;;;10.01;44.52
73566;BME280;61846;52.970;-3.168;2023-03-23T05:33:49;98202.28;;;10.58;43.12
73566;BME280;61846;52.970;-3.168;2023-03-23T05:36:15;98187.61;;;8.63;47.09
73566;BME280;61846;52.970;-3.168;2023-03-23T05:38:40;98188.43;;;6.30;52.28
73566;BME280;61846;52.970;-3.168;2023-03-23T05:41:05;98168.46;;;7.93;50.00
73566;BME280;61846;52.970;-3.168;2023-03-23T05:43:31;98162.91;;;7.88;49.50
73566;BME280;61846;52.970;-3.168;2023-03-23T05:45:57;98152.46;;;8.24;48.76
73566;BME280;61846;52.970;-3.168;2023-03-23T05:48:22;98165.38;;;7.04;51.69
73566;BME280;61846;52.970;-3.168;2023-03-23T05:50:47;98153.79;;;7.78;50.28
73566;BME280;61846;52.970;-3.168;2023-03-23T05:53:13;98159.95;;;6.66;52.30
73566;BME280;61846;52.970;-3.168;2023-03-23T05:55:38;98163.19;;;7.14;51.45
73566;BME280;61846;52.970;-3.168;2023-03-23T05:58:04;98166.09;;;9.01;47.59
73566;BME280;61846;52.970;-3.168;2023-03-23T06:00:29;98159.36;;;8.82;45.68
73566;BME280;61846;52.970;-3.168;2023-03-23T06:02:55;98180.38;;;7.77;48.33
73566;BME280;61846;52.970;-3.168;2023-03-23T06:05:20;98155.17;;;6.77;52.13
73566;BME280;61846;52.970;-3.168;2023-03-23T06:07:46;98147.90;;;8.65;48.17
73566;BME280;61846;52.970;-3.168;2023-03-23T06:10:11;98153.14;;;7.77;49.72
73566;BME280;61846;52.970;-3.168;2023-03-23T06:12:36;98173.07;;;7.56;51.24
73566;BME280;61846;52.970;-3.168;2023-03-23T06:15:02;98177.32;;;6.28;54.10
73566;BME280;61846;52.970;-3.168;2023-03-23T06:17:27;98162.12;;;7.48;51.14
73566;BME280;61846;52.970;-3.168;2023-03-23T06:19:52;98170.36;;;8.42;48.56
73566;BME280;61846;52.970;-3.168;2023-03-23T06:22:18;98160.38;;;8.71;47.58
73566;BME280;61846;52.970;-3.168;2023-03-23T06:24:44;98155.58;;;6.55;53.39
73566;BME280;61846;52.970;-3.168;2023-03-23T06:27:09;98166.74;;;6.21;54.97
73566;BME280;61846;52.970;-3.168;2023-03-23T06:29:34;98152.53;;;6.52;53.95
73566;BME280;61846;52.970;-3.168;2023-03-23T06:32:01;98163.92;;;7.47;52.27
73566;BME280;61846;52.970;-3.168;2023-03-23T06:34:25;98159.84;;;6.60;53.04
73566;BME280;61846;52.970;-3.168;2023-03-23T06:36:51;98152.80;;;6.96;52.54
73566;BME280;61846;52.970;-3.168;2023-03-23T06:39:16;98140.43;;;7.37;51.88
73566;BME280;61846;52.970;-3.168;2023-03-23T06:41:42;98148.29;;;8.77;47.74
73566;BME280;61846;52.970;-3.168;2023-03-23T06:44:07;98148.57;;;6.58;52.50
73566;BME280;61846;52.970;-3.168;2023-03-23T06:46:33;98148.14;;;7.53;51.38
73566;BME280;61846;52.970;-3.168;2023-03-23T06:48:58;98143.17;;;6.92;52.37
73566;BME280;61846;52.970;-3.168;2023-03-23T06:51:24;98145.45;;;7.94;51.17
73566;BME280;61846;52.970;-3.168;2023-03-23T06:53:50;98141.45;;;8.81;48.50
73566;BME280;61846;52.970;-3.168;2023-03-23T06:56:15;98131.98;;;7.44;52.47
73566;BME280;61846;52.970;-3.168;2023-03-23T06:58:40;98134.39;;;6.67;53.53
73566;BME280;61846;52.970;-3.168;2023-03-23T07:01:06;98149.37;;;7.99;53.55
73566;BME280;61846;52.970;-3.168;2023-03-23T07:03:32;98148.05;;;7.31;55.45
73566;BME280;61846;52.970;-3.168;2023-03-23T07:05:57;98139.26;;;7.36;55.65
73566;BME280;61846;52.970;-3.168;2023-03-23T07:08:23;98140.14;;;6.17;58.16
73566;BME280;61846;52.970;-3.168;2023-03-23T07:10:51;98123.38;;;7.84;54.01
73566;BME280;61846;52.970;-3.168;2023-03-23T07:13:14;98123.72;;;8.58;51.37
73566;BME280;61846;52.970;-3.168;2023-03-23T07:15:40;98120.09;;;7.62;53.24
73566;BME280;61846;52.970;-3.168;2023-03-23T07:18:05;98139.21;;;7.13;55.11
73566;BME280;61846;52.970;-3.168;2023-03-23T07:20:31;98143.15;;;6.30;57.01
73566;BME280;61846;52.970;-3.168;2023-03-23T07:22:56;98132.07;;;6.65;57.37
73566;BME280;61846;52.970;-3.168;2023-03-23T07:25:22;98142.57;;;8.32;52.93
73566;BME280;61846;52.970;-3.168;2023-03-23T07:27:47;98138.24;;;9.13;51.61
73566;BME280;61846;52.970;-3.168;2023-03-23T07:30:13;98123.12;;;9.82;50.02
73566;BME280;61846;52.970;-3.168;2023-03-23T07:32:38;98143.12;;;10.50;48.36
73566;BME280;61846;52.970;-3.168;2023-03-23T07:35:04;98125.64;;;7.52;53.79
73566;BME280;61846;52.970;-3.168;2023-03-23T07:37:29;98115.00;;;7.59;55.77
73566;BME280;61846;52.970;-3.168;2023-03-23T07:39:54;98132.65;;;9.25;51.38
73566;BME280;61846;52.970;-3.168;2023-03-23T07:42:20;98126.36;;;7.15;56.11
73566;BME280;61846;52.970;-3.168;2023-03-23T07:44:45;98125.88;;;8.59;52.02
73566;BME280;61846;52.970;-3.168;2023-03-23T07:47:11;98134.74;;;8.39;52.24
73566;BME280;61846;52.970;-3.168;2023-03-23T07:49:36;98150.12;;;8.70;51.29
73566;BME280;61846;52.970;-3.168;2023-03-23T07:52:02;98141.80;;;9.80;49.07
73566;BME280;61846;52.970;-3.168;2023-03-23T07:54:27;98162.60;;;9.78;48.67
73566;BME280;61846;52.970;-3.168;2023-03-23T07:56:52;98166.07;;;9.69;49.43
73566;BME280;61846;52.970;-3.168;2023-03-23T07:59:18;98178.50;;;8.81;51.08
73566;BME280;61846;52.970;-3.168;2023-03-23T08:01:44;98180.26;;;9.39;52.49
73566;BME280;61846;52.970;-3.168;2023-03-23T08:04:09;98174.06;;;9.41;50.66
73566;BME280;61846;52.970;-3.168;2023-03-23T08:06:35;98174.74;;;9.64;49.81
73566;BME280;61846;52.970;-3.168;2023-03-23T08:09:01;98176.57;;;9.60;51.86
73566;BME280;61846;52.970;-3.168;2023-03-23T08:11:26;98187.13;;;10.26;50.14
73566;BME280;61846;52.970;-3.168;2023-03-23T08:13:52;98188.02;;;8.97;52.13
73566;BME280;61846;52.970;-3.168;2023-03-23T08:16:18;98199.90;;;9.00;51.78
73566;BME280;61846;52.970;-3.168;2023-03-23T08:18:42;98189.13;;;9.94;50.92
73566;BME280;61846;52.970;-3.168;2023-03-23T08:21:08;98192.78;;;10.62;48.19
73566;BME280;61846;52.970;-3.168;2023-03-23T08:23:34;98190.35;;;10.86;49.10
73566;BME280;61846;52.970;-3.168;2023-03-23T08:25:59;98188.99;;;10.88;48.85
73566;BME280;61846;52.970;-3.168;2023-03-23T08:28:25;98196.07;;;11.00;47.89
73566;BME280;61846;52.970;-3.168;2023-03-23T08:30:51;98190.67;;;10.01;49.29
73566;BME280;61846;52.970;-3.168;2023-03-23T08:33:17;98191.29;;;9.94;50.31
73566;BME280;61846;52.970;-3.168;2023-03-23T08:35:41;98191.48;;;10.88;48.56
73566;BME280;61846;52.970;-3.168;2023-03-23T08:38:06;98191.67;;;11.22;48.44
73566;BME280;61846;52.970;-3.168;2023-03-23T08:40:32;98192.53;;;11.67;44.58
73566;BME280;61846;52.970;-3.168;2023-03-23T08:42:57;98203.80;;;12.04;46.19
73566;BME280;61846;52.970;-3.168;2023-03-23T08:45:24;98193.99;;;12.36;45.88
73566;BME280;61846;52.970;-3.168;2023-03-23T08:47:49;98213.62;;;10.85;47.06
73566;BME280;61846;52.970;-3.168;2023-03-23T08:50:15;98208.50;;;10.23;49.00
73566;BME280;61846;52.970;-3.168;2023-03-23T08:52:40;98203.95;;;11.07;47.53
73566;BME280;61846;52.970;-3.168;2023-03-23T08:55:05;98206.77;;;11.09;47.55
73566;BME280;61846;52.970;-3.168;2023-03-23T08:57:30;98218.54;;;11.83;46.04
73566;BME280;61846;52.970;-3.168;2023-03-23T08:59:56;98229.11;;;11.11;46.83
73566;BME280;61846;52.970;-3.168;2023-03-23T09:02:22;98235.21;;;11.66;47.62
73566;BME280;61846;52.970;-3.168;2023-03-23T09:04:47;98251.26;;;11.43;47.84
73566;BME280;61846;52.970;-3.168;2023-03-23T09:07:13;98234.79;;;10.15;49.55
73566;BME280;61846;52.970;-3.168;2023-03-23T09:09:38;98241.03;;;9.04;52.24
73566;BME280;61846;52.970;-3.168;2023-03-23T09:12:04;98251.33;;;10.73;47.26
73566;BME280;61846;52.970;-3.168;2023-03-23T09:14:29;98247.31;;;11.44;47.87
73566;BME280;61846;52.970;-3.168;2023-03-23T09:16:54;98252.97;;;8.54;51.67
73566;BME280;61846;52.970;-3.168;2023-03-23T09:19:20;98255.84;;;9.98;51.61
73566;BME280;61846;52.970;-3.168;2023-03-23T09:21:45;98275.41;;;9.65;51.10
73566;BME280;61846;52.970;-3.168;2023-03-23T09:24:11;98287.68;;;10.63;50.13
73566;BME280;61846;52.970;-3.168;2023-03-23T09:26:37;98298.52;;;10.28;49.79
73566;BME280;61846;52.970;-3.168;2023-03-23T09:29:02;98294.10;;;11.20;48.90
73566;BME280;61846;52.970;-3.168;2023-03-23T09:31:27;98300.46;;;10.24;51.70
73566;BME280;61846;52.970;-3.168;2023-03-23T09:33:53;98300.76;;;10.81;47.35
73566;BME280;61846;52.970;-3.168;2023-03-23T09:36:19;98312.12;;;10.47;47.05
73566;BME280;61846;52.970;-3.168;2023-03-23T09:38:44;98310.07;;;10.53;49.62
73566;BME280;61846;52.970;-3.168;2023-03-23T09:41:21;98311.52;;;9.65;52.21
73566;BME280;61846;52.970;-3.168;2023-03-23T09:43:45;98306.16;;;8.56;53.36
73566;BME280;61846;52.970;-3.168;2023-03-23T09:46:12;98306.06;;;9.68;50.93
73566;BME280;61846;52.970;-3.168;2023-03-23T09:48:36;98319.57;;;8.61;52.03
73566;BME280;61846;52.970;-3.168;2023-03-23T09:50:58;98316.39;;;8.58;50.99
73566;BME280;61846;52.970;-3.168;2023-03-23T09:53:21;98303.78;;;9.21;51.04
73566;BME280;61846;52.970;-3.168;2023-03-23T09:55:43;98316.36;;;10.43;48.56
73566;BME280;61846;52.970;-3.168;2023-03-23T09:58:14;98314.05;;;10.35;48.96
73566;BME280;61846;52.970;-3.168;2023-03-23T10:00:37;98327.66;;;10.20;49.42
73566;BME280;61846;52.970;-3.168;2023-03-23T10:03:05;98323.93;;;10.78;47.84
73566;BME280;61846;52.970;-3.168;2023-03-23T10:05:30;98302.22;;;11.30;47.35
73566;BME280;61846;52.970;-3.168;2023-03-23T10:07:51;98299.87;;;10.83;47.71
73566;BME280;61846;52.970;-3.168;2023-03-23T10:10:17;98301.09;;;9.84;49.98
73566;BME280;61846;52.970;-3.168;2023-03-23T10:12:49;98307.45;;;9.90;50.42
73566;BME280;61846;52.970;-3.168;2023-03-23T10:15:13;98302.16;;;9.39;52.16
73566;BME280;61846;52.970;-3.168;2023-03-23T10:17:39;98308.76;;;10.33;51.33
73566;BME280;61846;52.970;-3.168;2023-03-23T10:20:13;98302.33;;;10.76;49.86
73566;BME280;61846;52.970;-3.168;2023-03-23T10:22:29;98301.02;;;11.16;48.96
73566;BME280;61846;52.970;-3.168;2023-03-23T10:24:51;98294.74;;;11.28;48.96
73566;BME280;61846;52.970;-3.168;2023-03-23T10:27:22;98295.56;;;10.75;49.94
73566;BME280;61846;52.970;-3.168;2023-03-23T10:29:43;98291.28;;;11.05;50.07
73566;BME280;61846;52.970;-3.168;2023-03-23T10:32:13;98285.96;;;9.81;51.13
73566;BME280;61846;52.970;-3.168;2023-03-23T10:34:39;98291.06;;;10.86;49.70
73566;BME280;61846;52.970;-3.168;2023-03-23T10:37:03;98283.38;;;10.45;49.85
73566;BME280;61846;52.970;-3.168;2023-03-23T10:39:27;98286.14;;;11.45;48.40
73566;BME280;61846;52.970;-3.168;2023-03-23T10:41:49;98268.86;;;12.06;49.69
73566;BME280;61846;52.970;-3.168;2023-03-23T10:44:17;98261.47;;;11.60;52.22
73566;BME280;61846;52.970;-3.168;2023-03-23T10:46:44;98259.47;;;11.07;51.59
73566;BME280;61846;52.970;-3.168;2023-03-23T10:49:07;98262.11;;;11.71;52.09
73566;BME280;61846;52.970;-3.168;2023-03-23T10:51:33;98274.37;;;11.77;49.60
73566;BME280;61846;52.970;-3.168;2023-03-23T10:53:58;98274.87;;;11.51;52.44
73566;BME280;61846;52.970;-3.168;2023-03-23T10:56:24;98266.41;;;11.04;52.35
73566;BME280;61846;52.970;-3.168;2023-03-23T10:58:46;98263.31;;;11.86;50.50
73566;BME280;61846;52.970;-3.168;2023-03-23T11:01:12;98249.53;;;11.77;50.13
73566;BME280;61846;52.970;-3.168;2023-03-23T11:03:41;98238.36;;;12.39;49.13
73566;BME280;61846;52.970;-3.168;2023-03-23T11:06:06;98243.52;;;12.45;48.17
73566;BME280;61846;52.970;-3.168;2023-03-23T11:08:30;98241.96;;;12.97;47.43
73566;BME280;61846;52.970;-3.168;2023-03-23T11:10:55;98241.83;;;13.66;46.22
73566;BME280;61846;52.970;-3.168;2023-03-23T11:13:22;98248.42;;;13.57;43.44
73566;BME280;61846;52.970;-3.168;2023-03-23T11:15:46;98250.03;;;12.09;45.71
73566;BME280;61846;52.970;-3.168;2023-03-23T11:18:11;98271.77;;;13.27;45.90
73566;BME280;61846;52.970;-3.168;2023-03-23T11:20:37;98262.50;;;13.27;44.85
73566;BME280;61846;52.970;-3.168;2023-03-23T11:23:01;98274.48;;;12.34;42.31
73566;BME280;61846;52.970;-3.168;2023-03-23T11:25:25;98268.73;;;13.16;42.95
73566;BME280;61846;52.970;-3.168;2023-03-23T11:27:51;98264.95;;;13.14;42.60
73566;BME280;61846;52.970;-3.168;2023-03-23T11:30:23;98273.39;;;12.82;43.83
73566;BME280;61846;52.970;-3.168;2023-03-23T11:32:44;98261.55;;;12.48;42.40
73566;BME280;61846;52.970;-3.168;2023-03-23T11:35:15;98285.12;;;10.95;47.13
73566;BME280;61846;52.970;-3.168;2023-03-23T11:37:35;98284.00;;;10.01;49.13
73566;BME280;61846;52.970;-3.168;2023-03-23T11:39:59;98279.43;;;12.36;44.67
73566;BME280;61846;52.970;-3.168;2023-03-23T11:42:25;98301.60;;;11.91;47.66
73566;BME280;61846;52.970;-3.168;2023-03-23T11:44:49;98295.27;;;11.06;48.64
73566;BME280;61846;52.970;-3.168;2023-03-23T11:47:20;98288.37;;;12.26;47.53
73566;BME280;61846;52.970;-3.168;2023-03-23T11:49:46;98281.88;;;12.10;44.50
73566;BME280;61846;52.970;-3.168;2023-03-23T11:52:11;98284.48;;;12.41;44.50
73566;BME280;61846;52.970;-3.168;2023-03-23T11:54:33;98275.80;;;12.68;43.78
73566;BME280;61846;52.970;-3.168;2023-03-23T11:56:56;98281.60;;;11.32;45.93
73566;BME280;61846;52.970;-3.168;2023-03-23T11:59:27;98282.85;;;11.71;45.14
73566;BME280;61846;52.970;-3.168;2023-03-23T12:01:51;98279.26;;;11.82;45.04
73566;BME280;61846;52.970;-3.168;2023-03-23T12:04:30;98274.97;;;12.74;43.46
73566;BME280;61846;52.970;-3.168;2023-03-23T12:06:44;98269.65;;;13.97;40.88
73566;BME280;61846;52.970;-3.168;2023-03-23T12:09:13;98273.26;;;14.20;41.37
73566;BME280;61846;52.970;-3.168;2023-03-23T12:11:36;98275.21;;;14.11;39.16
73566;BME280;61846;52.970;-3.168;2023-03-23T12:14:06;98262.98;;;16.02;39.52
73566;BME280;61846;52.970;-3.168;2023-03-23T12:16:28;98267.09;;;14.49;40.02
73566;BME280;61846;52.970;-3.168;2023-03-23T12:18:50;98275.15;;;15.43;39.50
73566;BME280;61846;52.970;-3.168;2023-03-23T12:21:17;98266.58;;;16.07;36.11
73566;BME280;61846;52.970;-3.168;2023-03-23T12:23:40;98269.26;;;13.61;39.95
73566;BME280;61846;52.970;-3.168;2023-03-23T12:26:09;98292.31;;;10.89;46.12
73566;BME280;61846;52.970;-3.168;2023-03-23T12:28:35;98290.71;;;12.97;46.40
73566;BME280;61846;52.970;-3.168;2023-03-23T12:30:59;98281.88;;;13.43;45.64
73566;BME280;61846;52.970;-3.168;2023-03-23T12:33:24;98293.07;;;14.69;44.50
73566;BME280;61846;52.970;-3.168;2023-03-23T12:35:52;98284.82;;;15.24;42.46
73566;BME280;61846;52.970;-3.168;2023-03-23T12:38:23;98288.24;;;13.46;43.36
73566;BME280;61846;52.970;-3.168;2023-03-23T12:40:47;98288.15;;;14.16;42.24
73566;BME280;61846;52.970;-3.168;2023-03-23T12:43:04;98272.64;;;14.54;40.37
73566;BME280;61846;52.970;-3.168;2023-03-23T12:47:56;98276.45;;;12.87;45.26
73566;BME280;61846;52.970;-3.168;2023-03-23T12:50:20;98251.07;;;11.76;47.24
73566;BME280;61846;52.970;-3.168;2023-03-23T12:52:47;98246.55;;;11.61;47.61
73566;BME280;61846;52.970;-3.168;2023-03-23T12:55:14;98236.20;;;11.89;47.16